Time;durP1;ratioP1;P1;durP2;ratioP2;P2;SDS_P1;SDS_P2;PMS_P1;PMS_P2;Temp;Humidity;BMP_temperature;BMP_pressure;BME280_temperature;BME280_humidity;BME280_pressure;Samples;Min_cycle;Max_cycle;Signal;HPM_P1;HPM_P2
2023/03/02 00:01:49;;;;;;;23.87;17.93;;;;;;;2.18;nan;98221.75;5076022;28;20193;-75
2023/03/02 00:04:30;;;;;;;24.07;17.10;;;;;;;2.13;nan;98220.59;5076035;28;20595;-75
2023/03/02 00:07:01;;;;;;;24.73;17.03;;;;;;;2.08;nan;98212.38;5074797;28;20196;-73
2023/03/02 00:09:29;;;;;;;25.87;17.13;;;;;;;2.09;nan;98216.63;5076301;28;20189;-73
2023/03/02 00:11:55;;;;;;;22.17;16.80;;;;;;;2.11;nan;98219.91;5075797;28;20231;-75
2023/03/02 00:14:22;;;;;;;22.87;16.93;;;;;;;2.09;nan;98206.16;5075740;28;20212;-75
2023/03/02 00:16:48;;;;;;;24.27;17.50;;;;;;;2.02;nan;98207.75;5075353;28;20225;-74
2023/03/02 00:19:14;;;;;;;23.97;17.77;;;;;;;1.97;nan;98210.06;5075086;28;20206;-72
2023/03/02 00:21:41;;;;;;;26.00;17.50;;;;;;;1.95;nan;98207.63;5075599;28;20226;-72
2023/03/02 00:24:08;;;;;;;23.27;17.57;;;;;;;1.92;nan;98207.09;5075233;28;20208;-72
2023/03/02 00:26:35;;;;;;;23.20;16.80;;;;;;;1.95;nan;98210.25;5075576;28;20200;-72
2023/03/02 00:29:02;;;;;;;21.40;16.90;;;;;;;1.95;nan;98214.66;5075522;28;20201;-72
2023/03/02 00:31:29;;;;;;;24.40;17.57;;;;;;;1.96;nan;98203.19;5075068;28;20678;-72
2023/03/02 00:33:55;;;;;;;24.67;17.53;;;;;;;1.96;nan;98205.81;5075338;28;20201;-72
2023/03/02 00:36:23;;;;;;;24.57;18.17;;;;;;;1.91;nan;98203.69;5074911;28;20548;-75
2023/03/02 00:38:51;;;;;;;22.23;17.37;;;;;;;1.98;nan;98203.84;5075316;28;20231;-75
2023/03/02 00:41:20;;;;;;;22.70;17.50;;;;;;;2.03;nan;98201.56;5075220;28;20213;-75
2023/03/02 00:43:47;;;;;;;24.80;17.97;;;;;;;2.00;nan;98202.72;5075136;28;20224;-75
2023/03/02 00:46:19;;;;;;;24.83;17.60;;;;;;;1.98;nan;98199.41;5075149;28;20200;-75
2023/03/02 00:48:46;;;;;;;22.80;17.53;;;;;;;1.85;nan;98187.78;5073676;28;20640;-75
2023/03/02 00:51:13;;;;;;;24.60;19.10;;;;;;;1.95;nan;98204.16;5074727;28;20685;-75
2023/03/02 00:53:40;;;;;;;23.73;18.60;;;;;;;1.98;nan;98199.41;5074981;28;20224;-75
2023/03/02 00:56:08;;;;;;;24.70;17.90;;;;;;;2.01;nan;98198.25;5074984;28;20207;-75
2023/03/02 00:58:35;;;;;;;28.33;19.20;;;;;;;1.95;nan;98194.50;5074919;28;20227;-75
2023/03/02 01:01:12;;;;;;;24.90;17.90;;;;;;;1.93;nan;98195.63;5074808;28;20211;-75
2023/03/02 01:03:39;;;;;;;25.87;19.03;;;;;;;1.88;nan;98190.88;5074716;28;20235;-75
2023/03/02 01:06:06;;;;;;;22.53;17.40;;;;;;;1.85;nan;98199.06;5074687;28;20210;-75
2023/03/02 01:08:32;;;;;;;23.00;17.77;;;;;;;1.73;nan;98187.25;5074672;28;20200;-75
2023/03/02 01:11:00;;;;;;;25.63;18.23;;;;;;;1.68;nan;98193.94;5074259;28;20205;-75
2023/03/02 01:13:26;;;;;;;26.43;18.07;;;;;;;1.81;nan;98186.44;5074095;28;20228;-74
2023/03/02 01:16:03;;;;;;;25.73;19.37;;;;;;;1.79;nan;98184.00;5074124;28;20591;-75
2023/03/02 01:18:31;;;;;;;26.17;18.93;;;;;;;1.65;nan;98175.91;5074340;28;20228;-75
2023/03/02 01:21:05;;;;;;;27.70;18.77;;;;;;;1.58;nan;98170.50;5074413;28;20258;-75
2023/03/02 01:23:32;;;;;;;23.67;18.17;;;;;;;1.61;nan;98167.56;5074085;28;20226;-75
2023/03/02 01:25:58;;;;;;;25.33;18.73;;;;;;;1.62;nan;98173.63;5074100;28;20208;-75
2023/03/02 01:28:24;;;;;;;27.47;19.53;;;;;;;1.57;nan;98168.06;5074339;28;20223;-75
2023/03/02 01:30:51;;;;;;;25.70;18.13;;;;;;;1.59;nan;98172.16;5073817;28;20215;-75
2023/03/02 01:33:17;;;;;;;25.00;18.87;;;;;;;1.54;nan;98169.16;5073521;28;20224;-75
2023/03/02 01:35:46;;;;;;;26.43;19.37;;;;;;;1.50;nan;98164.44;5074213;28;20211;-75
2023/03/02 01:38:12;;;;;;;25.60;18.60;;;;;;;1.54;nan;98169.16;5074021;28;20231;-75
2023/03/02 01:40:39;;;;;;;25.40;19.83;;;;;;;1.49;nan;98165.41;5074143;28;20204;-75
2023/03/02 01:43:11;;;;;;;27.40;19.40;;;;;;;1.49;nan;98158.34;5073998;28;20224;-75
2023/03/02 01:45:45;;;;;;;32.13;20.47;;;;;;;1.41;nan;98160.16;5074116;28;20199;-75
2023/03/02 01:48:15;;;;;;;26.13;19.77;;;;;;;1.44;nan;98154.59;5073754;28;20185;-75
2023/03/02 01:50:41;;;;;;;25.77;19.00;;;;;;;1.31;nan;98160.25;5073975;28;20209;-75
2023/03/02 01:53:08;;;;;;;26.33;19.43;;;;;;;1.38;nan;98148.19;5073844;28;20229;-75
2023/03/02 01:55:37;;;;;;;28.33;18.20;;;;;;;1.29;nan;98143.91;5073617;28;20621;-75
2023/03/02 01:58:05;;;;;;;24.87;18.17;;;;;;;1.40;nan;98140.97;5073766;28;20231;-75
2023/03/02 02:00:36;;;;;;;24.93;18.70;;;;;;;1.26;nan;98141.59;5073414;28;20208;-75
2023/03/02 02:03:08;;;;;;;24.67;18.40;;;;;;;1.30;nan;98144.72;5073476;28;20235;-75
2023/03/02 02:05:38;;;;;;;23.70;18.70;;;;;;;1.34;nan;98138.16;5073788;28;20204;-75
2023/03/02 02:08:05;;;;;;;26.70;19.73;;;;;;;1.32;nan;98138.34;5072475;28;20207;-75
2023/03/02 02:10:32;;;;;;;22.27;17.50;;;;;;;1.37;nan;98130.84;5073349;28;20209;-75
2023/03/02 02:12:59;;;;;;;26.53;19.77;;;;;;;1.35;nan;98131.97;5073281;28;20225;-75
2023/03/02 02:15:26;;;;;;;26.97;19.23;;;;;;;1.29;nan;98124.75;5073317;28;20219;-75
2023/03/02 02:17:54;;;;;;;24.33;18.90;;;;;;;1.23;nan;98130.63;5073489;28;20232;-75
2023/03/02 02:20:37;;;;;;;25.20;17.87;;;;;;;1.30;nan;98126.41;5073393;28;20205;-75
2023/03/02 02:23:37;;;;;;;25.90;19.13;;;;;;;1.26;nan;98132.94;5073334;28;20229;-75
2023/03/02 02:26:04;;;;;;;26.67;18.23;;;;;;;1.29;nan;98116.88;5072370;28;20243;-75
2023/03/02 02:28:37;;;;;;;24.60;18.47;;;;;;;1.33;nan;98123.44;5073420;28;20208;-75
2023/03/02 02:31:14;;;;;;;26.97;19.13;;;;;;;1.27;nan;98116.25;5073466;28;20196;-75
2023/03/02 02:33:44;;;;;;;29.87;19.73;;;;;;;1.24;nan;98116.53;5073183;28;20584;-75
2023/03/02 02:36:19;;;;;;;28.30;19.83;;;;;;;1.30;nan;98118.53;5073122;28;20205;-75
2023/03/02 02:38:48;;;;;;;25.93;18.53;;;;;;;1.20;nan;98112.59;5073670;28;20220;-75
2023/03/02 02:41:21;;;;;;;27.33;19.53;;;;;;;1.16;nan;98111.28;5073341;28;20278;-75
2023/03/02 02:43:48;;;;;;;26.03;19.63;;;;;;;1.13;nan;98111.63;5075736;28;20192;-75
2023/03/02 02:46:15;;;;;;;26.00;19.70;;;;;;;1.26;nan;98106.75;5077470;28;20291;-75
2023/03/02 02:48:41;;;;;;;29.47;20.10;;;;;;;1.25;nan;98105.09;5077422;28;20201;-75
2023/03/02 02:51:12;;;;;;;27.63;19.33;;;;;;;1.18;nan;98110.16;5077332;28;20291;-75
2023/03/02 02:53:47;;;;;;;29.20;19.87;;;;;;;1.25;nan;98110.31;5077280;28;20232;-75
2023/03/02 02:56:15;;;;;;;28.63;20.30;;;;;;;1.22;nan;98114.06;5077003;28;20631;-75
2023/03/02 02:58:47;;;;;;;26.23;19.53;;;;;;;1.23;nan;98113.13;5076841;28;20691;-75
2023/03/02 03:01:15;;;;;;;26.03;18.47;;;;;;;1.14;nan;98108.84;5077192;28;20558;-75
2023/03/02 03:03:51;;;;;;;27.73;20.20;;;;;;;1.18;nan;98109.34;5077070;28;20220;-75
2023/03/02 03:06:24;;;;;;;28.33;19.13;;;;;;;1.06;nan;98106.19;5077032;28;20192;-75
2023/03/02 03:08:55;;;;;;;27.93;20.03;;;;;;;1.00;nan;98106.00;5077002;28;20185;-75
2023/03/02 03:11:25;;;;;;;23.13;18.17;;;;;;;1.10;nan;98107.50;5076645;28;20185;-75
2023/03/02 03:14:11;;;;;;;28.27;19.30;;;;;;;1.11;nan;98105.69;5076867;28;20244;-75
2023/03/02 03:16:40;;;;;;;26.00;19.23;;;;;;;1.20;nan;98102.13;5076484;28;20216;-75
2023/03/02 03:19:17;;;;;;;26.43;19.20;;;;;;;1.11;nan;98098.69;5076460;28;20711;-75
2023/03/02 03:21:43;;;;;;;27.63;20.07;;;;;;;1.10;nan;98098.84;5077420;28;20323;-75
2023/03/02 03:24:09;;;;;;;27.10;19.67;;;;;;;1.09;nan;98099.81;5076739;28;20204;-75
2023/03/02 03:26:36;;;;;;;30.50;21.70;;;;;;;1.01;nan;98082.28;5076602;28;20204;-75
2023/03/02 03:29:04;;;;;;;27.37;19.20;;;;;;;0.88;nan;98091.53;5076313;28;20678;-75
2023/03/02 03:31:30;;;;;;;26.87;19.17;;;;;;;1.01;nan;98090.16;5076249;28;20204;-75
2023/03/02 03:33:59;;;;;;;27.13;18.93;;;;;;;0.82;nan;98093.03;5076569;28;20201;-75
2023/03/02 03:36:28;;;;;;;29.50;20.10;;;;;;;0.78;nan;98094.31;5076455;28;20205;-75
2023/03/02 03:38:55;;;;;;;27.50;20.07;;;;;;;0.71;nan;98095.09;5076421;28;20220;-75
2023/03/02 03:41:22;;;;;;;27.87;20.30;;;;;;;0.62;nan;98098.66;5076058;28;20213;-75
2023/03/02 03:43:49;;;;;;;25.50;19.67;;;;;;;0.64;nan;98102.75;5076327;28;20227;-75
2023/03/02 03:46:15;;;;;;;27.77;19.90;;;;;;;0.62;nan;98109.09;5076293;28;20310;-75
2023/03/02 03:48:41;;;;;;;25.20;19.63;;;;;;;0.47;nan;98107.03;5076278;28;20208;-75
2023/03/02 03:51:08;;;;;;;31.00;20.40;;;;;;;0.52;nan;98105.75;5075779;28;20291;-75
2023/03/02 03:53:34;;;;;;;27.90;20.07;;;;;;;0.51;nan;98102.34;5075782;28;20602;-75
2023/03/02 03:56:02;;;;;;;25.20;19.07;;;;;;;0.53;nan;98102.19;5074910;28;20212;-75
2023/03/02 03:58:30;;;;;;;27.80;19.63;;;;;;;0.62;nan;98102.06;5075636;28;20687;-75
2023/03/02 04:00:56;;;;;;;26.23;18.67;;;;;;;0.59;nan;98117.25;5075913;28;20207;-75
2023/03/02 04:03:24;;;;;;;29.57;19.70;;;;;;;0.51;nan;98112.81;5075762;28;20236;-75
2023/03/02 04:05:50;;;;;;;27.13;20.57;;;;;;;0.53;nan;98115.28;5076305;28;20201;-74
2023/03/02 04:08:18;;;;;;;28.03;19.00;;;;;;;0.49;nan;98111.31;5075771;28;20197;-74
2023/03/02 04:10:45;;;;;;;27.57;19.80;;;;;;;0.55;nan;98108.91;5075790;28;20564;-75
2023/03/02 04:13:11;;;;;;;31.03;20.87;;;;;;;0.64;nan;98105.38;5075230;28;20231;-75
2023/03/02 04:15:40;;;;;;;29.37;20.23;;;;;;;0.52;nan;98108.38;5075344;28;20217;-75
2023/03/02 04:18:07;;;;;;;29.43;20.13;;;;;;;0.47;nan;98116.69;5075446;28;20231;-75
2023/03/02 04:20:33;;;;;;;29.50;20.63;;;;;;;0.42;nan;98115.50;5075629;28;20208;-74
2023/03/02 04:23:00;;;;;;;28.60;20.63;;;;;;;0.45;nan;98125.69;5075535;28;20224;-75
2023/03/02 04:25:28;;;;;;;28.80;20.03;;;;;;;0.45;nan;98126.47;5075049;28;20598;-75
2023/03/02 04:27:55;;;;;;;30.03;20.73;;;;;;;0.40;nan;98126.13;5075249;28;20203;-75
2023/03/02 04:30:25;;;;;;;30.17;19.60;;;;;;;0.42;nan;98125.97;5075027;28;20576;-75
2023/03/02 04:32:51;;;;;;;30.73;20.70;;;;;;;0.38;nan;98124.63;5074426;28;20224;-75
2023/03/02 04:35:18;;;;;;;32.60;20.77;;;;;;;0.40;nan;98127.94;5074456;28;20208;-75
2023/03/02 04:37:45;;;;;;;28.80;20.77;;;;;;;0.39;nan;98116.66;5074323;28;20225;-75
2023/03/02 04:40:13;;;;;;;27.43;20.03;;;;;;;0.38;nan;98123.66;5074729;28;20285;-75
2023/03/02 04:42:40;;;;;;;29.70;19.90;;;;;;;0.36;nan;98111.72;5074110;28;20319;-75
2023/03/02 04:45:07;;;;;;;32.70;20.77;;;;;;;0.37;nan;98115.16;5074761;28;20215;-75
2023/03/02 04:47:33;;;;;;;29.17;20.80;;;;;;;0.38;nan;98113.19;5074320;28;20201;-75
2023/03/02 04:50:00;;;;;;;26.03;19.60;;;;;;;0.34;nan;98116.28;5074931;28;20205;-75
2023/03/02 04:52:26;;;;;;;30.33;20.80;;;;;;;0.15;nan;98119.91;5074856;28;20220;-75
2023/03/02 04:54:53;;;;;;;28.73;19.83;;;;;;;0.01;nan;98122.28;5074946;28;20200;-75
2023/03/02 04:57:19;;;;;;;27.70;19.43;;;;;;;0.01;nan;98128.31;5074777;28;20205;-75
2023/03/02 04:59:45;;;;;;;29.93;21.10;;;;;;;-0.08;nan;98121.38;5074750;28;20565;-75
2023/03/02 05:02:12;;;;;;;31.60;20.43;;;;;;;-0.22;nan;98121.09;5074398;28;20464;-75
2023/03/02 05:04:39;;;;;;;29.00;20.90;;;;;;;-0.22;nan;98121.91;5073914;28;20449;-75
2023/03/02 05:07:05;;;;;;;29.40;20.57;;;;;;;-0.34;nan;98112.66;5074208;28;20467;-75
2023/03/02 05:09:32;;;;;;;29.70;21.20;;;;;;;-0.35;nan;98111.00;5074359;28;20797;-75
2023/03/02 05:12:00;;;;;;;31.63;21.33;;;;;;;-0.22;nan;98110.66;5074515;28;20480;-75
2023/03/02 05:14:27;;;;;;;33.60;22.07;;;;;;;-0.28;nan;98111.22;5074140;28;20441;-75
2023/03/02 05:16:54;;;;;;;31.50;20.63;;;;;;;-0.24;nan;98115.19;5074247;28;20449;-75
2023/03/02 05:19:21;;;;;;;31.03;20.87;;;;;;;-0.17;nan;98124.88;5073896;28;20477;-75
2023/03/02 05:21:47;;;;;;;29.13;21.60;;;;;;;-0.22;nan;98114.06;5074101;28;20480;-74
2023/03/02 05:24:14;;;;;;;32.10;21.27;;;;;;;-0.11;nan;98121.69;5074516;28;20216;-75
2023/03/02 05:26:40;;;;;;;28.20;20.13;;;;;;;0.03;nan;98115.09;5074096;28;20445;-75
2023/03/02 05:29:07;;;;;;;30.33;19.60;;;;;;;0.04;nan;98114.94;5074047;28;20434;-75
2023/03/02 05:31:40;;;;;;;30.93;21.43;;;;;;;-0.16;nan;98110.88;5074020;28;20200;-74
2023/03/02 05:34:09;;;;;;;30.87;21.67;;;;;;;-0.22;nan;98105.44;5073991;28;20441;-75
2023/03/02 05:36:36;;;;;;;31.50;21.67;;;;;;;-0.15;nan;98107.28;5073711;28;20954;-75
2023/03/02 05:39:02;;;;;;;28.33;21.33;;;;;;;-0.16;nan;98108.25;5073442;28;20477;-75
2023/03/02 05:41:28;;;;;;;32.20;21.73;;;;;;;-0.14;nan;98118.53;5074113;28;20227;-75
2023/03/02 05:43:55;;;;;;;30.70;21.33;;;;;;;-0.15;nan;98107.28;5072998;28;20211;-75
2023/03/02 05:46:21;;;;;;;31.00;20.83;;;;;;;-0.08;nan;98105.69;5073415;28;20205;-75
2023/03/02 05:48:48;;;;;;;33.30;22.37;;;;;;;0.05;nan;98111.34;5073557;28;20207;-75
2023/03/02 05:51:14;;;;;;;30.40;21.47;;;;;;;-0.02;nan;98118.16;5073272;28;20433;-75
2023/03/02 05:53:41;;;;;;;31.03;21.60;;;;;;;0.00;nan;98121.44;5073197;28;20229;-75
2023/03/02 05:56:08;;;;;;;30.90;21.13;;;;;;;0.04;nan;98121.94;5072992;28;20209;-75
2023/03/02 05:58:35;;;;;;;28.03;20.43;;;;;;;0.08;nan;98121.50;5073189;28;20481;-74
2023/03/02 06:01:01;;;;;;;30.80;21.20;;;;;;;0.00;nan;98123.25;5072901;28;20955;-75
2023/03/02 06:03:27;;;;;;;32.23;21.73;;;;;;;0.15;nan;98119.91;5073084;28;20816;-75
2023/03/02 06:05:54;;;;;;;28.70;19.93;;;;;;;0.16;nan;98120.75;5072613;28;20799;-75
2023/03/02 06:08:21;;;;;;;34.17;22.97;;;;;;;0.08;nan;98119.88;5072637;28;20796;-75
2023/03/02 06:10:49;;;;;;;28.67;21.37;;;;;;;0.17;nan;98130.22;5073301;28;20210;-75
2023/03/02 06:13:16;;;;;;;29.90;22.20;;;;;;;0.17;nan;98127.59;5072751;28;20461;-75
2023/03/02 06:15:42;;;;;;;31.00;21.50;;;;;;;0.26;nan;98131.13;5072659;28;20228;-75
2023/03/02 06:18:11;;;;;;;32.43;21.17;;;;;;;0.31;nan;98134.88;5072320;28;20318;-74
2023/03/02 06:20:37;;;;;;;32.83;21.37;;;;;;;0.28;nan;98141.25;5072608;28;20481;-75
2023/03/02 06:23:04;;;;;;;28.53;20.20;;;;;;;0.32;nan;98136.56;5072729;28;20476;-74
2023/03/02 06:25:30;;;;;;;26.87;19.50;;;;;;;0.39;nan;98142.78;5072590;28;20682;-74
2023/03/02 06:27:57;;;;;;;33.17;22.00;;;;;;;0.51;nan;98148.59;5072756;28;20495;-75
2023/03/02 06:30:26;;;;;;;29.70;21.37;;;;;;;0.54;nan;98150.91;5072652;28;20448;-74
2023/03/02 06:32:53;;;;;;;29.53;20.43;;;;;;;0.72;nan;98141.19;5072519;28;20576;-74
2023/03/02 06:35:19;;;;;;;34.60;20.77;;;;;;;0.63;nan;98144.75;5072389;28;20212;-75
2023/03/02 06:37:45;;;;;;;29.87;22.00;;;;;;;0.51;nan;98148.59;5072446;28;20201;-74
2023/03/02 06:40:13;;;;;;;31.93;21.40;;;;;;;0.49;nan;98146.13;5072421;28;20211;-74
2023/03/02 06:42:41;;;;;;;33.80;21.53;;;;;;;0.52;nan;98152.84;5072639;28;20225;-74
2023/03/02 06:45:08;;;;;;;33.50;21.40;;;;;;;0.57;nan;98155.81;5072283;28;20211;-74
2023/03/02 06:47:35;;;;;;;31.60;21.00;;;;;;;0.69;nan;98149.34;5071199;28;20208;-74
2023/03/02 06:50:02;;;;;;;30.30;20.93;;;;;;;0.76;nan;98145.97;5072837;28;20203;-75
2023/03/02 06:52:28;;;;;;;31.17;21.27;;;;;;;0.72;nan;98149.84;5072244;28;20727;-75
2023/03/02 06:54:56;;;;;;;33.40;21.23;;;;;;;0.73;nan;98153.31;5072747;28;20572;-75
2023/03/02 06:57:22;;;;;;;30.23;21.13;;;;;;;0.67;nan;98159.97;5072408;28;20204;-74
2023/03/02 06:59:49;;;;;;;33.77;22.13;;;;;;;0.71;nan;98157.88;5072566;28;20263;-75
2023/03/02 07:02:15;;;;;;;30.83;21.23;;;;;;;0.86;nan;98162.34;5072718;28;20311;-75
2023/03/02 07:04:41;;;;;;;30.50;21.60;;;;;;;0.62;nan;98164.84;5072603;28;20200;-75
2023/03/02 07:07:08;;;;;;;31.53;21.00;;;;;;;0.68;nan;98163.41;5073129;28;20211;-75
2023/03/02 07:09:34;;;;;;;31.13;20.63;;;;;;;0.67;nan;98167.81;5072478;28;20212;-75
2023/03/02 07:12:01;;;;;;;33.47;21.87;;;;;;;0.86;nan;98172.81;5072621;28;20256;-75
2023/03/02 07:14:27;;;;;;;30.70;20.70;;;;;;;0.88;nan;98170.06;5072214;28;20208;-75
2023/03/02 07:16:56;;;;;;;31.07;21.10;;;;;;;0.97;nan;98174.34;5071814;28;20434;-75
2023/03/02 07:19:22;;;;;;;31.90;21.57;;;;;;;0.86;nan;98177.25;5071891;28;20224;-75
2023/03/02 07:21:48;;;;;;;31.10;20.67;;;;;;;0.94;nan;98169.47;5071716;28;20228;-75
2023/03/02 07:24:15;;;;;;;32.43;21.57;;;;;;;0.93;nan;98175.63;5071933;28;20212;-75
2023/03/02 07:26:41;;;;;;;31.60;21.50;;;;;;;0.99;nan;98172.41;5072336;28;20216;-75
2023/03/02 07:29:07;;;;;;;28.77;20.03;;;;;;;1.11;nan;98181.63;5072098;28;20211;-75
2023/03/02 07:31:34;;;;;;;32.03;20.77;;;;;;;1.27;nan;98172.06;5076078;28;20214;-75
2023/03/02 07:34:00;;;;;;;31.63;20.63;;;;;;;1.42;nan;98180.94;5075543;28;20249;-75
2023/03/02 07:36:26;;;;;;;30.20;20.40;;;;;;;1.38;nan;98181.41;5075472;28;20660;-75
2023/03/02 07:38:53;;;;;;;31.33;20.40;;;;;;;1.10;nan;98182.59;5075697;28;20315;-75
2023/03/02 07:41:21;;;;;;;29.60;20.53;;;;;;;1.25;nan;98187.09;5075692;28;20204;-75
2023/03/02 07:43:48;;;;;;;29.10;19.83;;;;;;;1.24;nan;98177.59;5075178;28;20730;-74
2023/03/02 07:46:14;;;;;;;26.67;19.43;;;;;;;1.36;nan;98184.22;5075572;28;20215;-74
2023/03/02 07:48:40;;;;;;;30.40;20.47;;;;;;;1.55;nan;98181.31;5075615;28;20201;-74
2023/03/02 07:51:07;;;;;;;36.70;20.93;;;;;;;1.61;nan;98183.28;5075165;28;20667;-75
2023/03/02 07:53:33;;;;;;;31.97;20.30;;;;;;;1.78;nan;98192.00;5075931;28;20228;-74
2023/03/02 07:56:01;;;;;;;32.07;20.40;;;;;;;1.95;nan;98181.41;5075700;28;20207;-74
2023/03/02 07:58:27;;;;;;;32.23;21.80;;;;;;;1.85;nan;98190.41;5075897;28;20247;-74
2023/03/02 08:00:54;;;;;;;31.60;21.67;;;;;;;1.93;nan;98190.38;5075156;28;20671;-74
2023/03/02 08:03:20;;;;;;;40.20;21.77;;;;;;;1.77;nan;98185.13;5075319;28;20243;-74
2023/03/02 08:05:46;;;;;;;29.43;21.77;;;;;;;1.73;nan;98186.44;5075574;28;20240;-74
2023/03/02 08:08:13;;;;;;;32.93;21.27;;;;;;;1.85;nan;98190.41;5075203;28;20696;-74
2023/03/02 08:10:39;;;;;;;31.87;20.97;;;;;;;2.05;nan;98189.09;5075472;28;20596;-74
2023/03/02 08:13:05;;;;;;;30.53;20.40;;;;;;;2.18;nan;98190.28;5075189;28;20315;-75
2023/03/02 08:15:32;;;;;;;26.30;18.50;;;;;;;2.38;nan;98193.38;5075522;28;20209;-75
2023/03/02 08:17:58;;;;;;;24.97;18.47;;;;;;;2.26;nan;98207.81;5075230;28;20605;-75
2023/03/02 08:20:25;;;;;;;25.70;17.57;;;;;;;2.64;nan;98194.00;5075297;28;20225;-75
2023/03/02 08:22:52;;;;;;;26.33;18.20;;;;;;;2.78;nan;98199.41;5075115;28;20282;-75
2023/03/02 08:25:18;;;;;;;24.53;18.20;;;;;;;2.82;nan;98199.88;5075145;28;20205;-75
2023/03/02 08:27:45;;;;;;;24.53;17.60;;;;;;;3.08;nan;98197.88;5075124;28;20208;-75
2023/03/02 08:30:12;;;;;;;24.70;17.37;;;;;;;3.10;nan;98194.09;5074837;28;20246;-75
2023/03/02 08:32:39;;;;;;;26.53;18.63;;;;;;;3.27;nan;98198.31;5074583;28;20228;-75
2023/03/02 08:35:06;;;;;;;24.13;16.50;;;;;;;3.32;nan;98193.34;5075550;28;20213;-75
2023/03/02 08:37:33;;;;;;;22.73;15.97;;;;;;;3.15;nan;98190.94;5075084;28;20200;-75
2023/03/02 08:40:00;;;;;;;23.07;16.83;;;;;;;3.42;nan;98193.13;5074753;28;20225;-75
2023/03/02 08:42:26;;;;;;;23.30;16.77;;;;;;;3.55;nan;98188.16;5074041;28;20228;-75
2023/03/02 08:44:52;;;;;;;21.20;16.67;;;;;;;3.63;nan;98188.13;5074883;28;20205;-75
2023/03/02 08:47:19;;;;;;;23.63;16.10;;;;;;;3.48;nan;98185.38;5074267;28;20236;-75
2023/03/02 08:49:45;;;;;;;21.83;16.03;;;;;;;3.35;nan;98181.69;5074463;28;20675;-75
2023/03/02 08:52:14;;;;;;;24.93;16.93;;;;;;;3.33;nan;98178.38;5074444;28;20704;-75
2023/03/02 08:54:40;;;;;;;20.50;15.60;;;;;;;3.20;nan;98178.16;5074750;28;20205;-75
2023/03/02 08:57:10;;;;;;;23.33;17.27;;;;;;;3.28;nan;98181.53;5074539;28;20204;-75
2023/03/02 08:59:37;;;;;;;21.70;16.67;;;;;;;3.19;nan;98171.22;5074526;28;20215;-75
2023/03/02 09:02:03;;;;;;;22.57;15.47;;;;;;;3.42;nan;98165.06;5074552;28;20228;-75
2023/03/02 09:04:30;;;;;;;22.63;15.23;;;;;;;3.46;nan;98168.16;5074552;28;20213;-75
2023/03/02 09:06:56;;;;;;;21.63;16.43;;;;;;;3.37;nan;98164.75;5074010;28;20562;-75
2023/03/02 09:09:22;;;;;;;23.43;15.70;;;;;;;3.43;nan;98164.06;5074455;28;20215;-75
2023/03/02 09:11:49;;;;;;;19.80;14.97;;;;;;;3.51;nan;98163.19;5074286;28;20229;-75
2023/03/02 09:14:15;;;;;;;22.30;15.77;;;;;;;3.68;nan;98170.00;5074155;28;20675;-75
2023/03/02 09:16:41;;;;;;;23.67;16.60;;;;;;;3.79;nan;98169.63;5073977;28;20561;-75
2023/03/02 09:19:08;;;;;;;22.83;16.87;;;;;;;3.75;nan;98165.72;5074343;28;20584;-75
2023/03/02 09:21:34;;;;;;;22.63;16.33;;;;;;;4.02;nan;98158.13;5073874;28;20235;-75
2023/03/02 09:24:01;;;;;;;20.90;16.63;;;;;;;4.09;nan;98158.25;5073948;28;20209;-75
2023/03/02 09:26:27;;;;;;;22.47;16.43;;;;;;;4.18;nan;98152.75;5073770;28;20679;-75
2023/03/02 09:28:55;;;;;;;22.57;16.73;;;;;;;3.95;nan;98164.25;5073947;28;20671;-75
2023/03/02 09:31:21;;;;;;;21.97;15.70;;;;;;;3.85;nan;98155.78;5074045;28;20207;-75
2023/03/02 09:33:48;;;;;;;22.53;15.47;;;;;;;4.18;nan;98160.66;5073584;28;20707;-76
2023/03/02 09:36:23;;;;;;;24.40;16.97;;;;;;;4.04;nan;98153.53;5073443;28;20211;-74
2023/03/02 09:38:49;;;;;;;23.97;16.73;;;;;;;4.30;nan;98166.31;5073809;28;20219;-75
2023/03/02 09:41:18;;;;;;;22.50;16.03;;;;;;;4.39;nan;98171.31;5073750;28;20204;-75
2023/03/02 09:44:20;;;;;;;22.20;16.27;;;;;;;4.37;nan;98165.41;5073489;28;20228;-75
2023/03/02 09:46:54;;;;;;;23.50;16.03;;;;;;;4.16;nan;98165.25;5072177;28;20290;-75
2023/03/02 09:49:31;;;;;;;20.93;15.67;;;;;;;4.53;nan;98167.91;5074030;28;20644;-75
2023/03/02 09:52:05;;;;;;;20.10;15.83;;;;;;;4.75;nan;98169.66;5073159;28;20228;-75
2023/03/02 09:54:32;;;;;;;21.10;15.33;;;;;;;4.69;nan;98177.47;5073576;28;20189;-75
2023/03/02 09:56:59;;;;;;;23.73;16.47;;;;;;;5.05;nan;98181.03;5073502;28;20201;-75
2023/03/02 09:59:29;;;;;;;21.93;14.87;;;;;;;5.04;nan;98179.41;5073211;28;20232;-75
2023/03/02 10:02:24;;;;;;;21.20;16.23;;;;;;;4.89;nan;98178.59;5073821;28;20232;-75
2023/03/02 10:04:54;;;;;;;22.67;15.07;;;;;;;5.31;nan;98181.41;5073991;28;20185;-75
2023/03/02 10:07:27;;;;;;;21.23;17.10;;;;;;;4.99;nan;98176.50;5073192;28;20255;-75
2023/03/02 10:10:01;;;;;;;20.83;15.17;;;;;;;5.13;nan;98186.22;5073192;28;20250;-75
2023/03/02 10:13:03;;;;;;;18.90;14.67;;;;;;;5.60;nan;98176.94;5072668;28;20589;-75
2023/03/02 10:15:42;;;;;;;18.97;15.30;;;;;;;5.61;nan;98180.41;5070424;28;20218;-75
2023/03/02 10:18:35;;;;;;;21.17;14.97;;;;;;;5.59;nan;98188.47;5072955;28;20193;-75
2023/03/02 10:21:11;;;;;;;18.73;14.37;;;;;;;5.70;nan;98179.28;5072540;28;20209;-75
2023/03/02 10:24:03;;;;;;;20.47;14.83;;;;;;;5.58;nan;98178.94;5072020;28;20250;-75
2023/03/02 10:26:43;;;;;;;20.57;16.00;;;;;;;5.43;nan;98187.88;5073834;28;20189;-75
2023/03/02 10:29:33;;;;;;;20.37;14.47;;;;;;;5.54;nan;98182.13;5072928;28;20632;-75
2023/03/02 10:32:13;;;;;;;20.20;15.27;;;;;;;5.65;nan;98179.81;5073865;28;20229;-75
2023/03/02 10:34:39;;;;;;;21.30;15.67;;;;;;;6.09;nan;98183.19;5073250;28;20289;-75
2023/03/02 10:37:15;;;;;;;18.60;15.53;;;;;;;5.82;nan;98191.84;5072871;28;20208;-75
2023/03/02 10:39:42;;;;;;;19.80;15.17;;;;;;;5.85;nan;98182.72;5072678;28;20220;-75
2023/03/02 10:42:22;;;;;;;20.07;15.10;;;;;;;5.57;nan;98187.03;5072559;28;20220;-75
2023/03/02 10:44:53;;;;;;;19.63;15.40;;;;;;;5.44;nan;98181.59;5072942;28;20192;-75
2023/03/02 10:47:26;;;;;;;20.43;15.27;;;;;;;6.14;nan;98174.72;5073473;28;20184;-75
2023/03/02 10:49:55;;;;;;;19.47;14.73;;;;;;;5.92;nan;98175.72;5073298;28;20200;-75
2023/03/02 10:52:24;;;;;;;19.53;14.80;;;;;;;5.70;nan;98171.38;5072256;28;20596;-75
2023/03/02 10:55:02;;;;;;;21.20;14.90;;;;;;;5.79;nan;98163.16;5072519;28;20200;-75
2023/03/02 10:57:34;;;;;;;18.50;14.83;;;;;;;6.14;nan;98166.78;5072473;28;20191;-73
2023/03/02 11:00:17;;;;;;;19.80;15.70;;;;;;;6.42;nan;98162.41;5072472;28;20271;-75
2023/03/02 11:03:03;;;;;;;18.07;14.53;;;;;;;6.69;nan;98164.25;5072535;28;20228;-75
2023/03/02 11:05:38;;;;;;;21.80;15.13;;;;;;;6.91;nan;98169.28;5075990;28;20659;-75
2023/03/02 11:08:31;;;;;;;18.20;14.10;;;;;;;7.18;nan;98160.50;5076612;28;20200;-75
2023/03/02 11:11:00;;;;;;;20.10;14.37;;;;;;;6.40;nan;98156.47;5074765;28;20204;-75
2023/03/02 11:13:36;;;;;;;20.57;15.33;;;;;;;6.67;nan;98150.41;5076633;28;20282;-75
2023/03/02 11:16:05;;;;;;;19.70;16.20;;;;;;;6.64;nan;98148.13;5076056;28;20208;-75
2023/03/02 11:18:37;;;;;;;19.40;15.33;;;;;;;6.63;nan;98149.16;5075547;28;20227;-75
2023/03/02 11:21:07;;;;;;;19.33;14.73;;;;;;;6.74;nan;98151.28;5076178;28;20220;-75
2023/03/02 11:23:36;;;;;;;20.43;15.30;;;;;;;6.84;nan;98157.84;5076837;28;20232;-75
2023/03/02 11:26:24;;;;;;;18.57;14.70;;;;;;;6.79;nan;98151.53;5076335;28;20205;-75
2023/03/02 11:29:02;;;;;;;21.57;15.53;;;;;;;6.77;nan;98148.22;5076398;28;20193;-74
2023/03/02 11:31:53;;;;;;;22.03;15.03;;;;;;;6.71;nan;98152.50;5076127;28;20188;-74
2023/03/02 11:34:30;;;;;;;19.97;14.37;;;;;;;6.88;nan;98145.88;5075664;28;20216;-75
2023/03/02 11:37:20;;;;;;;17.40;13.83;;;;;;;6.64;nan;98142.84;5075673;28;20193;-74
2023/03/02 11:39:49;;;;;;;20.73;16.07;;;;;;;6.61;nan;98146.69;5075615;28;20209;-74
2023/03/02 11:42:24;;;;;;;19.33;14.70;;;;;;;6.96;nan;98144.91;5075447;28;20236;-74
2023/03/02 11:44:51;;;;;;;17.37;14.53;;;;;;;6.82;nan;98143.19;5075089;28;20188;-75
2023/03/02 11:47:19;;;;;;;19.90;15.17;;;;;;;7.10;nan;98151.94;5075751;28;20211;-74
2023/03/02 11:49:52;;;;;;;19.77;15.27;;;;;;;7.14;nan;98142.56;5075254;28;20204;-74
2023/03/02 11:52:21;;;;;;;18.97;15.00;;;;;;;6.45;nan;98139.06;5075303;28;20247;-74